createdAt,value
2023-04-10T00:01:13.382Z,87.95
2023-04-10T00:03:41.151Z,88.16
2023-04-10T00:06:08.771Z,88.13
2023-04-10T00:08:36.262Z,88.12
2023-04-10T00:11:04.112Z,88.22
2023-04-10T00:13:32.323Z,88.12
2023-04-10T00:15:59.870Z,88.06
2023-04-10T00:18:27.443Z,88.08
2023-04-10T00:20:54.992Z,88.04
2023-04-10T00:23:22.557Z,87.82
2023-04-10T00:25:50.088Z,88.00
2023-04-10T00:28:17.690Z,87.99
2023-04-10T00:30:45.210Z,88.13
2023-04-10T00:33:12.715Z,88.22
2023-04-10T00:35:40.344Z,88.28
2023-04-10T00:38:07.902Z,88.15
2023-04-10T00:40:35.450Z,88.19
2023-04-10T00:43:03.327Z,88.04
2023-04-10T00:45:31.005Z,88.23
2023-04-10T00:47:58.635Z,88.28
2023-04-10T00:50:26.193Z,88.43
2023-04-10T00:52:53.837Z,88.55
2023-04-10T00:55:21.509Z,88.66
2023-04-10T00:57:49.060Z,88.52
2023-04-10T01:00:17.333Z,88.51
2023-04-10T01:02:45.079Z,88.62
2023-04-10T01:05:13.860Z,88.83
2023-04-10T01:08:08.468Z,89.06
2023-04-10T01:10:44.595Z,89.00
2023-04-10T01:13:19.194Z,88.98
2023-04-10T01:15:52.312Z,88.88
2023-04-10T01:18:26.624Z,88.81
2023-04-10T01:20:55.004Z,88.72
2023-04-10T01:23:52.332Z,88.80
2023-04-10T01:26:36.759Z,88.82
2023-04-10T01:29:17.896Z,89.07
2023-04-10T01:31:58.172Z,89.14
2023-04-10T01:34:32.235Z,89.13
2023-04-10T01:37:05.496Z,89.09
2023-04-10T01:39:37.855Z,88.96
2023-04-10T01:42:07.288Z,89.19
2023-04-10T01:44:38.190Z,89.29
2023-04-10T01:47:07.035Z,89.43
2023-04-10T01:49:35.345Z,89.86
2023-04-10T01:52:05.607Z,89.91
2023-04-10T01:54:33.489Z,89.89
2023-04-10T01:57:02.041Z,90.05
2023-04-10T01:59:29.767Z,90.15
2023-04-10T02:01:58.373Z,90.22
2023-04-10T02:04:26.379Z,90.22
2023-04-10T02:07:08.887Z,90.16
2023-04-10T02:10:24.689Z,90.05
2023-04-10T02:12:56.941Z,90.14
2023-04-10T02:15:27.353Z,90.35
2023-04-10T02:17:57.361Z,90.60
2023-04-10T02:20:25.655Z,90.62
2023-04-10T02:22:54.345Z,90.77
2023-04-10T02:25:22.012Z,90.64
2023-04-10T02:27:49.583Z,90.64
2023-04-10T02:30:17.114Z,90.57
2023-04-10T02:32:44.684Z,90.89
2023-04-10T02:35:12.292Z,90.86
2023-04-10T02:37:39.850Z,91.29
2023-04-10T02:40:08.186Z,91.25
2023-04-10T02:42:35.728Z,91.22
2023-04-10T02:45:03.656Z,91.39
2023-04-10T02:47:31.247Z,91.58
2023-04-10T02:49:58.809Z,92.14
2023-04-10T02:52:26.555Z,92.20
2023-04-10T02:54:54.195Z,92.06
2023-04-10T02:57:21.773Z,92.93
2023-04-10T02:59:52.434Z,92.90
2023-04-10T03:02:20.555Z,92.56
2023-04-10T03:04:48.257Z,92.56
2023-04-10T03:07:15.854Z,92.44
2023-04-10T03:09:43.400Z,92.49
2023-04-10T03:12:10.952Z,92.65
2023-04-10T03:14:38.558Z,92.46
2023-04-10T03:17:06.063Z,92.39
2023-04-10T03:19:33.578Z,92.41
2023-04-10T03:22:01.100Z,92.50
2023-04-10T03:24:28.670Z,92.77
2023-04-10T03:26:56.156Z,92.74
2023-04-10T03:29:23.784Z,92.83
2023-04-10T03:31:51.350Z,92.95
2023-04-10T03:34:18.874Z,93.06
2023-04-10T03:36:46.410Z,93.34
2023-04-10T03:39:13.945Z,93.49
2023-04-10T03:41:41.475Z,93.71
2023-04-10T03:44:09.072Z,93.43
2023-04-10T03:46:36.670Z,93.50
2023-04-10T03:49:04.361Z,93.54
2023-04-10T03:51:31.943Z,93.33
2023-04-10T03:53:59.468Z,93.57
2023-04-10T03:56:27.010Z,93.54
2023-04-10T03:58:54.561Z,93.64
2023-04-10T04:01:22.824Z,93.44
2023-04-10T04:03:50.592Z,93.80
2023-04-10T04:06:18.394Z,93.82
2023-04-10T04:08:45.944Z,93.80
2023-04-10T04:11:13.497Z,93.82
2023-04-10T04:13:40.998Z,93.95
2023-04-10T04:16:09.618Z,93.97
2023-04-10T04:18:37.288Z,94.11
2023-04-10T04:21:05.055Z,94.11
2023-04-10T04:23:32.573Z,94.22
2023-04-10T04:26:00.128Z,94.14
2023-04-10T04:28:30.025Z,94.11
2023-04-10T04:30:57.853Z,94.36
2023-04-10T04:33:25.389Z,94.19
2023-04-10T04:35:52.980Z,94.24
2023-04-10T04:38:20.562Z,94.32
2023-04-10T04:40:48.121Z,94.21
2023-04-10T04:43:15.665Z,94.21
2023-04-10T04:45:43.408Z,94.15
2023-04-10T04:48:11.011Z,94.19
2023-04-10T04:50:40.790Z,94.10
2023-04-10T04:53:09.208Z,94.01
2023-04-10T04:55:36.792Z,93.88
2023-04-10T04:58:04.501Z,93.87
2023-04-10T05:00:32.111Z,93.91
2023-04-10T05:02:59.754Z,93.84
2023-04-10T05:05:27.309Z,93.84
2023-04-10T05:07:54.833Z,93.77
2023-04-10T05:10:22.371Z,93.82
2023-04-10T05:12:49.923Z,93.73
2023-04-10T05:15:17.520Z,93.94
2023-04-10T05:17:45.130Z,94.26
2023-04-10T05:20:12.699Z,94.10
2023-04-10T05:22:40.207Z,94.05
2023-04-10T05:25:07.917Z,94.02
2023-04-10T05:27:36.638Z,94.15
2023-04-10T05:30:04.593Z,94.03
2023-04-10T05:32:32.165Z,93.96
2023-04-10T05:34:59.717Z,93.92
2023-04-10T05:37:27.268Z,93.85
2023-04-10T05:39:54.843Z,93.64
2023-04-10T05:42:23.890Z,93.53
2023-04-10T05:44:52.435Z,93.53
2023-04-10T05:47:20.211Z,93.50
2023-04-10T05:49:47.785Z,93.38
2023-04-10T05:52:15.295Z,93.47
2023-04-10T05:54:42.856Z,93.13
2023-04-10T05:57:10.387Z,93.23
2023-04-10T05:59:37.908Z,93.08
2023-04-10T06:02:05.505Z,92.99
2023-04-10T06:04:33.256Z,92.81
2023-04-10T06:07:00.964Z,92.72
2023-04-10T06:09:28.514Z,92.66
2023-04-10T06:11:56.056Z,92.55
2023-04-10T06:14:23.584Z,92.68
2023-04-10T06:16:51.189Z,92.58
2023-04-10T06:19:18.723Z,92.44
2023-04-10T06:21:46.258Z,92.46
2023-04-10T06:24:13.840Z,92.44
2023-04-10T06:26:41.446Z,92.42
2023-04-10T06:29:09.287Z,92.29
2023-04-10T06:31:37.609Z,92.23
2023-04-10T06:34:05.271Z,92.28
2023-04-10T06:36:32.792Z,92.42
2023-04-10T06:39:00.326Z,92.36
2023-04-10T06:41:27.844Z,92.60
2023-04-10T06:43:55.376Z,92.53
2023-04-10T06:46:23.131Z,92.66
2023-04-10T06:48:50.749Z,92.47
2023-04-10T06:51:18.274Z,92.59
2023-04-10T06:53:45.789Z,92.50
2023-04-10T06:56:13.368Z,92.50
2023-04-10T06:58:40.909Z,92.51
2023-04-10T07:01:08.483Z,92.29
2023-04-10T07:03:36.062Z,92.01
2023-04-10T07:06:03.944Z,91.91
2023-04-10T07:08:31.504Z,91.69
2023-04-10T07:10:59.144Z,91.58
2023-04-10T07:13:26.751Z,91.26
2023-04-10T07:15:54.322Z,91.33
2023-04-10T07:18:21.868Z,90.98
2023-04-10T07:20:51.323Z,90.74
2023-04-10T07:23:18.869Z,90.80
2023-04-10T07:25:46.682Z,90.59
2023-04-10T07:28:14.245Z,90.42
2023-04-10T07:30:41.827Z,90.27
2023-04-10T07:33:09.644Z,90.22
2023-04-10T07:35:37.352Z,90.48
2023-04-10T07:38:05.114Z,90.23
2023-04-10T07:40:32.639Z,89.86
2023-04-10T07:43:00.153Z,89.80
2023-04-10T07:45:27.733Z,89.74
2023-04-10T07:47:55.315Z,89.57
2023-04-10T07:50:22.858Z,89.35
2023-04-10T07:52:50.397Z,89.20
2023-04-10T07:55:18.053Z,88.95
2023-04-10T07:57:45.654Z,88.79
2023-04-10T08:00:13.778Z,88.08
2023-04-10T08:02:41.400Z,88.17
2023-04-10T08:05:09.401Z,87.58
2023-04-10T08:07:37.133Z,87.14
2023-04-10T08:10:05.244Z,87.12
2023-04-10T08:12:36.270Z,87.33
2023-04-10T08:15:04.274Z,87.58
2023-04-10T08:17:31.895Z,87.76
2023-04-10T08:19:59.432Z,87.88
2023-04-10T08:22:26.983Z,87.22
2023-04-10T08:24:54.521Z,86.39
2023-04-10T08:27:22.237Z,86.36
2023-04-10T08:29:49.755Z,86.11
2023-04-10T08:32:17.326Z,86.11
2023-04-10T08:34:44.877Z,85.85
2023-04-10T08:37:12.447Z,86.02
2023-04-10T08:39:39.982Z,85.90
2023-04-10T08:42:07.646Z,85.14
2023-04-10T08:44:35.311Z,83.82
2023-04-10T08:47:03.644Z,83.70
2023-04-10T08:49:37.112Z,81.65
2023-04-10T08:52:13.453Z,80.50
2023-04-10T08:54:44.211Z,80.75
2023-04-10T08:57:15.875Z,81.48
2023-04-10T08:59:43.508Z,79.67
2023-04-10T09:02:11.301Z,79.23
2023-04-10T09:04:39.297Z,80.23
2023-04-10T09:07:06.981Z,80.56
2023-04-10T09:09:34.534Z,81.19
2023-04-10T09:12:02.590Z,81.10
2023-04-10T09:14:31.835Z,80.88
2023-04-10T09:17:20.482Z,80.92
2023-04-10T09:19:53.538Z,81.52
2023-04-10T09:22:32.038Z,81.72
2023-04-10T09:25:01.237Z,81.55
2023-04-10T09:27:31.702Z,81.18
2023-04-10T09:29:59.499Z,81.10
2023-04-10T09:32:44.446Z,81.29
2023-04-10T09:35:15.968Z,81.07
2023-04-10T09:37:46.481Z,80.82
2023-04-10T09:40:23.235Z,80.68
2023-04-10T09:42:51.621Z,79.74
2023-04-10T09:45:19.145Z,79.40
2023-04-10T09:48:08.129Z,79.29
2023-04-10T09:50:40.412Z,79.73
2023-04-10T09:53:10.364Z,79.55
2023-04-10T09:55:38.420Z,79.21
2023-04-10T09:58:06.658Z,79.23
2023-04-10T10:00:45.662Z,79.11
2023-04-10T10:03:18.600Z,79.06
2023-04-10T10:05:49.213Z,78.63
2023-04-10T10:08:17.610Z,78.70
2023-04-10T10:10:54.265Z,78.35
2023-04-10T10:13:31.692Z,77.79
2023-04-10T10:16:21.719Z,76.94
2023-04-10T10:18:55.743Z,76.62
2023-04-10T10:21:24.608Z,77.00
2023-04-10T10:23:53.153Z,76.53
2023-04-10T10:26:20.762Z,76.61
2023-04-10T10:28:48.776Z,76.71
2023-04-10T10:31:16.739Z,75.84
2023-04-10T10:33:44.909Z,76.14
2023-04-10T10:36:15.088Z,76.20
2023-04-10T10:39:01.680Z,75.04
2023-04-10T10:41:38.284Z,73.96
2023-04-10T10:44:15.964Z,70.70
2023-04-10T10:46:51.158Z,63.75
2023-04-10T10:49:18.687Z,63.20
2023-04-10T10:51:49.336Z,60.45
2023-04-10T10:54:57.078Z,59.45
2023-04-10T10:57:47.140Z,60.11
2023-04-10T11:00:16.514Z,58.12
2023-04-10T11:02:44.401Z,58.85
2023-04-10T11:05:50.607Z,60.27
2023-04-10T11:08:35.234Z,57.65
2023-04-10T11:11:04.549Z,56.62
2023-04-10T11:13:36.413Z,55.26
2023-04-10T11:16:06.023Z,54.86
2023-04-10T11:18:45.736Z,53.64
2023-04-10T11:21:18.014Z,52.09
2023-04-10T11:23:51.618Z,53.40
2023-04-10T11:26:34.200Z,55.51
2023-04-10T11:29:02.810Z,56.43
2023-04-10T11:31:30.954Z,56.49
2023-04-10T11:34:06.482Z,57.17
2023-04-10T11:36:37.962Z,56.82
2023-04-10T11:39:09.299Z,57.51
2023-04-10T11:41:39.087Z,57.98
2023-04-10T11:44:13.912Z,57.29
2023-04-10T11:46:42.966Z,56.74
2023-04-10T11:49:10.782Z,54.23
2023-04-10T11:51:39.986Z,54.10
2023-04-10T11:54:36.646Z,54.43
2023-04-10T11:57:09.349Z,50.64
2023-04-10T11:59:36.952Z,50.38
2023-04-10T12:02:12.585Z,51.10
2023-04-10T12:04:41.596Z,49.57
2023-04-10T12:07:09.815Z,46.31
2023-04-10T12:09:37.556Z,42.87
2023-04-10T12:12:06.920Z,40.19
2023-04-10T12:14:39.982Z,36.31
2023-04-10T12:17:09.468Z,31.40
2023-04-10T12:19:39.043Z,30.88
2023-04-10T12:22:07.016Z,34.77
2023-04-10T12:24:47.946Z,37.82
2023-04-10T12:27:22.743Z,38.28
2023-04-10T12:29:52.664Z,38.22
2023-04-10T12:32:20.693Z,36.34
2023-04-10T12:34:53.363Z,38.02
2023-04-10T12:37:20.951Z,36.46
2023-04-10T12:39:48.690Z,37.73
2023-04-10T12:42:18.735Z,40.32
2023-04-10T12:44:56.567Z,42.35
2023-04-10T12:47:25.235Z,41.27
2023-04-10T12:50:07.297Z,40.18
2023-04-10T12:52:36.114Z,35.01
2023-04-10T12:55:12.732Z,32.01
2023-04-10T12:57:41.317Z,31.03
2023-04-10T13:00:10.955Z,28.32
2023-04-10T13:02:42.097Z,27.32
2023-04-10T13:05:10.301Z,28.72
2023-04-10T13:07:38.584Z,26.60
2023-04-10T13:10:07.339Z,27.83
2023-04-10T13:12:35.545Z,30.16
2023-04-10T13:15:03.403Z,32.33
2023-04-10T13:17:30.967Z,35.33
2023-04-10T13:19:58.511Z,36.43
2023-04-10T13:22:26.048Z,34.86
2023-04-10T13:24:53.599Z,35.56
2023-04-10T13:27:21.172Z,32.89
2023-04-10T13:29:48.693Z,34.23
2023-04-10T13:32:16.300Z,33.71
2023-04-10T13:34:43.836Z,33.39
2023-04-10T13:37:11.380Z,31.76
2023-04-10T13:39:38.962Z,31.38
2023-04-10T13:42:06.588Z,32.51
2023-04-10T13:44:34.193Z,34.36
2023-04-10T13:47:01.780Z,36.94
2023-04-10T13:49:29.338Z,38.74
2023-04-10T13:51:57.524Z,39.99
2023-04-10T13:54:26.202Z,40.17
2023-04-10T13:56:53.758Z,39.39
2023-04-10T13:59:21.572Z,37.77
2023-04-10T14:01:49.140Z,35.07
2023-04-10T14:04:16.686Z,34.33
2023-04-10T14:06:44.253Z,31.75
2023-04-10T14:09:11.808Z,31.30
2023-04-10T14:11:39.416Z,29.65
2023-04-10T14:14:07.132Z,30.18
2023-04-10T14:16:34.810Z,27.32
2023-04-10T14:19:02.405Z,24.96
2023-04-10T14:21:29.918Z,25.36
2023-04-10T14:23:57.463Z,27.12
2023-04-10T14:26:24.986Z,29.06
2023-04-10T14:28:52.667Z,31.14
2023-04-10T14:31:20.323Z,32.65
2023-04-10T14:33:49.197Z,33.01
2023-04-10T14:36:16.874Z,33.32
2023-04-10T14:38:44.510Z,35.13
2023-04-10T14:41:12.063Z,38.01
2023-04-10T14:43:39.579Z,39.01
2023-04-10T14:46:07.247Z,40.39
2023-04-10T14:48:34.880Z,40.31
2023-04-10T14:51:02.551Z,41.38
2023-04-10T14:53:30.266Z,41.45
2023-04-10T14:55:57.818Z,40.45
2023-04-10T14:58:25.466Z,40.14
2023-04-10T15:00:53.055Z,41.34
2023-04-10T15:03:23.740Z,41.65
2023-04-10T15:05:59.398Z,42.32
2023-04-10T15:08:28.872Z,42.06
2023-04-10T15:10:56.784Z,42.55
2023-04-10T15:13:24.687Z,42.11
2023-04-10T15:15:52.553Z,40.62
2023-04-10T15:18:20.070Z,40.46
2023-04-10T15:20:47.955Z,40.19
2023-04-10T15:23:15.494Z,38.58
2023-04-10T15:25:43.434Z,36.54
2023-04-10T15:28:11.302Z,37.36
2023-04-10T15:30:38.852Z,39.50
2023-04-10T15:33:06.432Z,43.22
2023-04-10T15:35:34.032Z,46.54
2023-04-10T15:38:01.583Z,48.60
2023-04-10T15:40:29.123Z,53.04
2023-04-10T15:42:56.703Z,57.72
2023-04-10T15:45:24.300Z,58.07
2023-04-10T15:47:51.967Z,59.47
2023-04-10T15:50:19.561Z,61.51
2023-04-10T15:52:47.170Z,63.34
2023-04-10T15:55:14.772Z,65.10
2023-04-10T15:57:42.654Z,68.45
2023-04-10T16:00:11.514Z,68.19
2023-04-10T16:02:39.243Z,68.84
2023-04-10T16:05:07.334Z,69.23
2023-04-10T16:07:35.083Z,69.61
2023-04-10T16:10:03.077Z,70.98
2023-04-10T16:12:30.929Z,71.78
2023-04-10T16:14:58.809Z,71.90
2023-04-10T16:17:26.416Z,72.87
2023-04-10T16:19:55.200Z,73.52
2023-04-10T16:22:23.054Z,74.49
2023-04-10T16:24:54.318Z,74.22
2023-04-10T16:27:21.857Z,74.35
2023-04-10T16:29:50.176Z,74.82
2023-04-10T16:32:19.109Z,75.02
2023-04-10T16:34:47.183Z,75.39
2023-04-10T16:37:14.713Z,76.18
2023-04-10T16:39:42.563Z,77.96
2023-04-10T16:42:10.443Z,78.91
2023-04-10T16:44:38.039Z,79.84
2023-04-10T16:47:05.835Z,80.12
2023-04-10T16:49:33.745Z,80.76
2023-04-10T16:52:01.279Z,81.32
2023-04-10T16:54:29.194Z,81.03
2023-04-10T16:56:56.738Z,81.01
2023-04-10T16:59:24.311Z,80.99
2023-04-10T17:01:51.878Z,80.78
2023-04-10T17:04:19.571Z,81.00
2023-04-10T17:06:47.449Z,81.19
2023-04-10T17:09:15.051Z,81.44
2023-04-10T17:11:43.198Z,81.58
2023-04-10T17:14:11.174Z,81.65
2023-04-10T17:16:39.349Z,81.64
2023-04-10T17:19:07.330Z,82.14
2023-04-10T17:21:35.206Z,82.21
2023-04-10T17:24:02.967Z,82.50
2023-04-10T17:26:31.066Z,82.48
2023-04-10T17:28:58.598Z,83.07
2023-04-10T17:31:26.500Z,83.28
2023-04-10T17:33:54.706Z,83.43
2023-04-10T17:36:22.259Z,83.54
2023-04-10T17:38:53.846Z,83.90
2023-04-10T17:41:23.057Z,84.02
2023-04-10T17:43:50.616Z,84.04
2023-04-10T17:46:18.212Z,84.31
2023-04-10T17:48:45.821Z,84.85
2023-04-10T17:51:13.741Z,84.85
2023-04-10T17:53:41.613Z,84.86
2023-04-10T17:56:17.149Z,85.15
2023-04-10T17:58:45.003Z,85.85
2023-04-10T18:01:20.252Z,85.85
2023-04-10T18:03:48.412Z,86.01
2023-04-10T18:06:16.101Z,86.34
2023-04-10T18:08:43.948Z,86.77
2023-04-10T18:11:11.831Z,87.00
2023-04-10T18:13:39.462Z,87.10
2023-04-10T18:16:08.058Z,87.30
2023-04-10T18:18:36.076Z,87.34
2023-04-10T18:21:06.096Z,87.35
2023-04-10T18:23:34.089Z,87.20
2023-04-10T18:26:01.757Z,87.14
2023-04-10T18:28:29.844Z,87.01
2023-04-10T18:30:57.796Z,87.23
2023-04-10T18:33:26.139Z,87.43
2023-04-10T18:35:55.002Z,87.66
2023-04-10T18:38:26.585Z,87.84
2023-04-10T18:40:55.159Z,87.79
2023-04-10T18:43:23.830Z,87.48
2023-04-10T18:45:51.901Z,87.27
2023-04-10T18:48:20.001Z,87.43
2023-04-10T18:50:51.946Z,87.96
2023-04-10T18:53:20.887Z,88.22
2023-04-10T18:55:50.613Z,88.37
2023-04-10T18:58:19.742Z,88.41
2023-04-10T19:00:50.638Z,88.83
2023-04-10T19:03:18.554Z,88.87
2023-04-10T19:05:46.572Z,88.77
2023-04-10T19:08:15.586Z,88.90
2023-04-10T19:10:43.265Z,89.06
2023-04-10T19:13:12.255Z,89.33
2023-04-10T19:15:47.527Z,89.65
2023-04-10T19:18:16.520Z,90.64
2023-04-10T19:20:50.333Z,90.57
2023-04-10T19:23:22.275Z,90.31
2023-04-10T19:25:55.091Z,89.97
2023-04-10T19:28:23.565Z,89.94
2023-04-10T19:30:51.895Z,89.61
2023-04-10T19:33:19.644Z,89.39
2023-04-10T19:35:47.568Z,89.10
2023-04-10T19:38:15.206Z,88.91
2023-04-10T19:40:43.469Z,88.88
2023-04-10T19:43:11.775Z,88.80
2023-04-10T19:45:39.889Z,88.67
2023-04-10T19:48:08.945Z,89.01
2023-04-10T19:50:36.866Z,89.44
2023-04-10T19:53:04.934Z,89.84
2023-04-10T19:55:32.576Z,90.17
2023-04-10T19:58:00.259Z,90.07
2023-04-10T20:00:27.867Z,89.77
2023-04-10T20:02:56.101Z,89.68
2023-04-10T20:05:23.838Z,89.40
2023-04-10T20:07:51.434Z,89.54
2023-04-10T20:10:19.171Z,89.58
2023-04-10T20:12:46.956Z,89.84
2023-04-10T20:15:14.565Z,89.99
2023-04-10T20:17:42.120Z,90.00
2023-04-10T20:20:10.296Z,90.00
2023-04-10T20:22:37.854Z,89.97
2023-04-10T20:25:05.880Z,90.05
2023-04-10T20:27:33.452Z,89.98
2023-04-10T20:30:00.996Z,89.88
2023-04-10T20:32:28.591Z,89.82
2023-04-10T20:34:56.182Z,89.92
2023-04-10T20:37:23.767Z,90.01
2023-04-10T20:39:51.300Z,90.15
2023-04-10T20:42:19.488Z,90.17
2023-04-10T20:44:46.995Z,90.30
2023-04-10T20:47:14.870Z,90.40
2023-04-10T20:49:42.489Z,90.74
2023-04-10T20:52:10.083Z,90.75
2023-04-10T20:54:37.806Z,90.86
2023-04-10T20:57:05.395Z,91.25
2023-04-10T20:59:33.463Z,91.70
2023-04-10T21:02:01.057Z,92.14
2023-04-10T21:04:28.647Z,92.19
2023-04-10T21:06:56.500Z,92.15
2023-04-10T21:09:24.058Z,92.11
2023-04-10T21:11:51.577Z,92.23
2023-04-10T21:14:19.138Z,92.49
2023-04-10T21:16:46.694Z,92.45
2023-04-10T21:19:14.285Z,92.15
2023-04-10T21:21:41.849Z,91.83
2023-04-10T21:24:09.408Z,91.99
2023-04-10T21:26:36.998Z,92.30
2023-04-10T21:29:04.733Z,92.73
2023-04-10T21:31:32.328Z,93.19
2023-04-10T21:33:59.877Z,93.45
2023-04-10T21:36:27.447Z,93.47
2023-04-10T21:38:55.329Z,93.33
2023-04-10T21:41:23.075Z,93.15
2023-04-10T21:43:50.679Z,93.08
2023-04-10T21:46:18.211Z,93.10
2023-04-10T21:48:45.772Z,92.98
2023-04-10T21:51:13.279Z,92.73
2023-04-10T21:53:40.840Z,92.47
2023-04-10T21:56:08.608Z,92.32
2023-04-10T21:58:36.151Z,92.17
2023-04-10T22:01:06.205Z,92.01
2023-04-10T22:03:34.314Z,91.99
2023-04-10T22:06:01.883Z,92.08
2023-04-10T22:08:29.439Z,92.09
2023-04-10T22:10:57.031Z,92.20
2023-04-10T22:13:30.861Z,92.35
2023-04-10T22:16:00.326Z,92.30
2023-04-10T22:18:27.867Z,92.17
2023-04-10T22:20:55.502Z,92.27
2023-04-10T22:23:23.153Z,91.96
2023-04-10T22:25:50.768Z,91.63
2023-04-10T22:28:18.366Z,91.93
2023-04-10T22:30:45.985Z,92.11
2023-04-10T22:33:13.548Z,92.14
2023-04-10T22:35:41.136Z,91.97
2023-04-10T22:38:08.699Z,91.97
2023-04-10T22:40:36.214Z,92.14
2023-04-10T22:43:03.882Z,92.27
2023-04-10T22:45:31.524Z,92.18
2023-04-10T22:47:59.055Z,92.14
2023-04-10T22:50:26.829Z,91.94
2023-04-10T22:52:54.372Z,92.39
2023-04-10T22:55:21.932Z,92.35
2023-04-10T22:57:49.510Z,92.19
2023-04-10T23:00:17.202Z,92.01
2023-04-10T23:02:44.833Z,92.08
2023-04-10T23:05:12.497Z,92.02
2023-04-10T23:07:40.021Z,91.86
2023-04-10T23:10:08.246Z,91.74
2023-04-10T23:12:35.772Z,91.96
2023-04-10T23:15:04.862Z,92.01
2023-04-10T23:17:32.441Z,91.93
2023-04-10T23:19:59.973Z,91.89
2023-04-10T23:22:30.534Z,91.79
2023-04-10T23:24:58.088Z,92.03
2023-04-10T23:27:25.666Z,92.16
2023-04-10T23:29:53.205Z,92.12
2023-04-10T23:32:20.773Z,92.17
2023-04-10T23:34:48.334Z,92.16
2023-04-10T23:37:15.894Z,92.11
2023-04-10T23:39:43.402Z,92.08
2023-04-10T23:42:10.938Z,92.11
2023-04-10T23:44:38.465Z,92.24
2023-04-10T23:47:05.991Z,92.21
2023-04-10T23:49:33.591Z,92.33
2023-04-10T23:52:01.116Z,92.21
2023-04-10T23:54:29.536Z,92.28
2023-04-10T23:56:57.105Z,92.29
2023-04-10T23:59:24.631Z,92.38
